首页
METAR-TAF:

METAR-TAF

机场 :

杭州, 中华人民共和国

杭州萧山国际机场

纬度: 30-14N, 经度: 120-10E, 海拔: 43米

当前天气观测

该预报发布于15分钟前的05:30 UTC
风速8节,风向北转西北,在西北北转东北之间变化
温度 9°C
湿度 87%
气压 1025 hPa
能見度: 4000
散云层高于1000英尺
多云层高于2000英尺
轻雾

METAR: ZSHC 250530Z 34004MPS 320V030 4000 BR SCT010 BKN020 09/07 Q1025 NOSIG

时间: 13:45 (05:45 UTC)

预报

该预报发布于2小时和29分钟前的03:16 UTC
预报有效从25日的 06点(UTC)到 26日的 06点(UTC)
风速8节,风向
能見度: 3000
散云层高于1000英尺
多云层高于2300英尺
轻雾
成为
从 25日的 21点(UTC)到 25日的 22点(UTC)
能見度: 1500
轻雾
成为
从 26日的 01点(UTC)到 26日的 02点(UTC)
能見度: 3000

TAF: ZSHC 250316Z 2506/2606 36004MPS 3000 BR SCT010 BKN023 TX15/2605Z TN04/2521Z BECMG 2521/2522 1500 BR BECMG 2601/2602 3000 HZ

超过4000个机场的气象观测和天气预报(METAR&TAF报告)。

可查询的气象台以黄色和红色小点在地图上表示。

将鼠标移到小点上方,可查看气象台名称。

然后点击查看天气观测和预报。

如需切换地图:点击带黑十字的绿色按钮放大地图;点击带横线的绿色按钮缩小地图;或者点击绿色箭头查看邻近地区的地图。


METAR-TAF: